sensor_id;sensor_type;location;lat;lon;timestamp;pressure;altitude;pressure_sealevel;temperature;humidity
21547;BME280;41275;51.912;4.388;2023-09-18T00:03:15;100559.88;;;26.40;56.30
21547;BME280;41275;51.912;4.388;2023-09-18T00:08:38;100551.88;;;26.44;56.05
21547;BME280;41275;51.912;4.388;2023-09-18T00:14:00;100541.25;;;26.51;55.76
21547;BME280;41275;51.912;4.388;2023-09-18T00:19:21;100538.22;;;26.53;55.83
21547;BME280;41275;51.912;4.388;2023-09-18T00:24:42;100527.47;;;26.56;55.92
21547;BME280;41275;51.912;4.388;2023-09-18T00:30:04;100513.47;;;26.54;56.27
21547;BME280;41275;51.912;4.388;2023-09-18T00:35:25;100489.38;;;26.53;55.72
21547;BME280;41275;51.912;4.388;2023-09-18T00:40:47;100472.75;;;26.54;55.65
21547;BME280;41275;51.912;4.388;2023-09-18T00:46:08;100436.22;;;26.52;55.88
21547;BME280;41275;51.912;4.388;2023-09-18T00:51:30;100409.44;;;26.50;55.95
21547;BME280;41275;51.912;4.388;2023-09-18T00:56:53;100413.31;;;26.49;55.75
21547;BME280;41275;51.912;4.388;2023-09-18T01:02:15;100417.84;;;26.45;55.67
21547;BME280;41275;51.912;4.388;2023-09-18T01:07:36;100397.56;;;26.42;55.99
21547;BME280;41275;51.912;4.388;2023-09-18T01:13:07;100418.63;;;26.46;55.68
21547;BME280;41275;51.912;4.388;2023-09-18T01:18:34;100413.50;;;26.44;55.80
21547;BME280;41275;51.912;4.388;2023-09-18T01:23:55;100415.13;;;26.45;55.72
21547;BME280;41275;51.912;4.388;2023-09-18T01:29:16;100425.25;;;26.48;55.86
21547;BME280;41275;51.912;4.388;2023-09-18T01:34:44;100413.19;;;26.46;55.87
21547;BME280;41275;51.912;4.388;2023-09-18T01:40:07;100418.38;;;26.51;55.91
21547;BME280;41275;51.912;4.388;2023-09-18T01:45:28;100415.50;;;26.59;55.79
21547;BME280;41275;51.912;4.388;2023-09-18T01:50:50;100427.03;;;26.68;55.63
21547;BME280;41275;51.912;4.388;2023-09-18T01:56:11;100417.06;;;26.73;55.52
21547;BME280;41275;51.912;4.388;2023-09-18T02:01:32;100435.25;;;26.72;55.40
21547;BME280;41275;51.912;4.388;2023-09-18T02:06:54;100430.28;;;26.74;55.35
21547;BME280;41275;51.912;4.388;2023-09-18T02:12:15;100431.53;;;26.77;55.31
21547;BME280;41275;51.912;4.388;2023-09-18T02:17:38;100427.69;;;26.78;55.42
21547;BME280;41275;51.912;4.388;2023-09-18T02:23:00;100395.88;;;26.78;55.48
21547;BME280;41275;51.912;4.388;2023-09-18T02:28:21;100404.91;;;26.82;55.52
21547;BME280;41275;51.912;4.388;2023-09-18T02:33:43;100378.22;;;26.84;55.20
21547;BME280;41275;51.912;4.388;2023-09-18T02:39:04;100372.06;;;26.87;55.20
21547;BME280;41275;51.912;4.388;2023-09-18T02:44:25;100343.00;;;26.88;55.43
21547;BME280;41275;51.912;4.388;2023-09-18T02:49:47;100294.94;;;26.88;55.32
21547;BME280;41275;51.912;4.388;2023-09-18T02:55:08;100299.56;;;26.88;55.43
21547;BME280;41275;51.912;4.388;2023-09-18T03:00:31;100308.22;;;26.78;55.53
21547;BME280;41275;51.912;4.388;2023-09-18T03:05:52;100276.34;;;26.75;55.38
21547;BME280;41275;51.912;4.388;2023-09-18T03:11:14;100282.94;;;26.74;55.46
21547;BME280;41275;51.912;4.388;2023-09-18T03:16:35;100332.94;;;26.73;55.50
21547;BME280;41275;51.912;4.388;2023-09-18T03:21:56;100307.59;;;26.53;56.02
21547;BME280;41275;51.912;4.388;2023-09-18T03:27:18;100347.81;;;26.51;56.15
21547;BME280;41275;51.912;4.388;2023-09-18T03:32:39;100356.50;;;26.44;56.38
21547;BME280;41275;51.912;4.388;2023-09-18T03:38:00;100336.22;;;26.38;56.61
21547;BME280;41275;51.912;4.388;2023-09-18T03:43:21;100329.44;;;26.32;56.83
21547;BME280;41275;51.912;4.388;2023-09-18T03:48:43;100334.53;;;26.33;57.39
21547;BME280;41275;51.912;4.388;2023-09-18T03:54:04;100348.16;;;26.37;57.06
21547;BME280;41275;51.912;4.388;2023-09-18T03:59:25;100302.88;;;26.37;57.76
21547;BME280;41275;51.912;4.388;2023-09-18T04:04:46;100276.03;;;26.48;57.74
21547;BME280;41275;51.912;4.388;2023-09-18T04:10:08;100246.06;;;26.57;57.54
21547;BME280;41275;51.912;4.388;2023-09-18T04:15:29;100249.78;;;26.52;57.92
21547;BME280;41275;51.912;4.388;2023-09-18T04:20:53;100243.56;;;26.52;57.83
21547;BME280;41275;51.912;4.388;2023-09-18T04:26:15;100246.38;;;26.55;57.88
21547;BME280;41275;51.912;4.388;2023-09-18T04:31:36;100252.25;;;26.57;57.76
21547;BME280;41275;51.912;4.388;2023-09-18T04:36:59;100271.69;;;26.59;57.71
21547;BME280;41275;51.912;4.388;2023-09-18T04:42:20;100273.53;;;26.55;57.60
21547;BME280;41275;51.912;4.388;2023-09-18T04:47:41;100264.16;;;26.53;58.06
21547;BME280;41275;51.912;4.388;2023-09-18T04:53:03;100263.03;;;26.54;57.84
21547;BME280;41275;51.912;4.388;2023-09-18T04:58:25;100253.94;;;26.62;57.85
21547;BME280;41275;51.912;4.388;2023-09-18T05:03:46;100238.53;;;26.66;57.81
21547;BME280;41275;51.912;4.388;2023-09-18T05:09:09;100238.16;;;26.67;58.15
21547;BME280;41275;51.912;4.388;2023-09-18T05:14:30;100240.78;;;26.64;58.04
21547;BME280;41275;51.912;4.388;2023-09-18T05:19:51;100226.44;;;26.63;58.44
21547;BME280;41275;51.912;4.388;2023-09-18T05:25:13;100205.88;;;26.62;58.25
21547;BME280;41275;51.912;4.388;2023-09-18T05:30:38;100201.22;;;26.63;58.23
21547;BME280;41275;51.912;4.388;2023-09-18T05:36:04;100200.00;;;26.60;58.11
21547;BME280;41275;51.912;4.388;2023-09-18T05:41:25;100206.47;;;26.56;58.42
21547;BME280;41275;51.912;4.388;2023-09-18T05:46:49;100213.72;;;26.52;58.12
21547;BME280;41275;51.912;4.388;2023-09-18T05:52:11;100207.88;;;26.50;57.86
21547;BME280;41275;51.912;4.388;2023-09-18T05:57:32;100203.56;;;26.49;57.66
21547;BME280;41275;51.912;4.388;2023-09-18T06:02:53;100222.00;;;26.43;57.82
21547;BME280;41275;51.912;4.388;2023-09-18T06:08:15;100215.09;;;26.30;58.11
21547;BME280;41275;51.912;4.388;2023-09-18T06:13:36;100224.84;;;26.18;58.09
21547;BME280;41275;51.912;4.388;2023-09-18T06:18:58;100230.75;;;26.08;58.09
21547;BME280;41275;51.912;4.388;2023-09-18T06:24:21;100225.94;;;26.02;57.59
21547;BME280;41275;51.912;4.388;2023-09-18T06:29:42;100219.19;;;25.95;57.48
21547;BME280;41275;51.912;4.388;2023-09-18T06:35:04;100213.22;;;25.90;57.48
21547;BME280;41275;51.912;4.388;2023-09-18T06:40:26;100214.84;;;25.79;57.12
21547;BME280;41275;51.912;4.388;2023-09-18T06:45:47;100213.09;;;25.74;56.88
21547;BME280;41275;51.912;4.388;2023-09-18T06:51:09;100222.19;;;25.78;56.94
21547;BME280;41275;51.912;4.388;2023-09-18T06:56:30;100223.75;;;25.67;56.56
21547;BME280;41275;51.912;4.388;2023-09-18T07:01:51;100225.22;;;25.64;56.25
21547;BME280;41275;51.912;4.388;2023-09-18T07:07:13;100227.13;;;25.64;56.34
21547;BME280;41275;51.912;4.388;2023-09-18T07:12:35;100238.53;;;25.69;56.19
21547;BME280;41275;51.912;4.388;2023-09-18T07:17:57;100236.38;;;25.87;56.04
21547;BME280;41275;51.912;4.388;2023-09-18T07:23:19;100233.66;;;25.87;55.95
21547;BME280;41275;51.912;4.388;2023-09-18T07:28:40;100243.69;;;25.99;55.82
21547;BME280;41275;51.912;4.388;2023-09-18T07:34:02;100261.94;;;26.14;55.14
21547;BME280;41275;51.912;4.388;2023-09-18T07:39:25;100265.16;;;26.20;55.03
21547;BME280;41275;51.912;4.388;2023-09-18T07:44:46;100261.97;;;26.30;54.51
21547;BME280;41275;51.912;4.388;2023-09-18T07:50:09;100272.22;;;26.37;54.19
21547;BME280;41275;51.912;4.388;2023-09-18T07:55:31;100266.88;;;26.53;54.31
21547;BME280;41275;51.912;4.388;2023-09-18T08:00:52;100279.63;;;26.52;53.68
21547;BME280;41275;51.912;4.388;2023-09-18T08:06:14;100282.72;;;26.66;53.84
21547;BME280;41275;51.912;4.388;2023-09-18T08:11:37;100290.91;;;26.82;53.64
21547;BME280;41275;51.912;4.388;2023-09-18T08:17:03;100311.25;;;27.04;53.38
21547;BME280;41275;51.912;4.388;2023-09-18T08:22:27;100311.28;;;27.36;52.66
21547;BME280;41275;51.912;4.388;2023-09-18T08:27:49;100313.88;;;27.48;52.02
21547;BME280;41275;51.912;4.388;2023-09-18T08:33:10;100316.34;;;27.37;51.64
21547;BME280;41275;51.912;4.388;2023-09-18T08:38:34;100329.66;;;27.27;50.66
21547;BME280;41275;51.912;4.388;2023-09-18T08:43:59;100312.84;;;27.21;50.49
21547;BME280;41275;51.912;4.388;2023-09-18T08:49:23;100313.22;;;27.20;50.43
21547;BME280;41275;51.912;4.388;2023-09-18T08:54:45;100331.47;;;27.07;50.34
21547;BME280;41275;51.912;4.388;2023-09-18T09:00:07;100329.44;;;27.04;50.21
21547;BME280;41275;51.912;4.388;2023-09-18T09:05:29;100342.88;;;26.97;50.46
21547;BME280;41275;51.912;4.388;2023-09-18T09:10:51;100339.19;;;27.05;50.06
21547;BME280;41275;51.912;4.388;2023-09-18T09:16:13;100349.53;;;27.15;49.58
21547;BME280;41275;51.912;4.388;2023-09-18T09:21:42;100338.00;;;27.34;49.46
21547;BME280;41275;51.912;4.388;2023-09-18T09:27:04;100334.94;;;27.35;49.32
21547;BME280;41275;51.912;4.388;2023-09-18T09:32:30;100327.63;;;27.71;48.74
21547;BME280;41275;51.912;4.388;2023-09-18T09:38:09;100338.81;;;27.70;48.11
21547;BME280;41275;51.912;4.388;2023-09-18T09:43:31;100342.25;;;27.82;47.86
21547;BME280;41275;51.912;4.388;2023-09-18T09:49:01;100347.16;;;28.12;47.28
21547;BME280;41275;51.912;4.388;2023-09-18T09:54:33;100362.25;;;28.45;46.88
21547;BME280;41275;51.912;4.388;2023-09-18T10:00:04;100358.22;;;28.77;45.72
21547;BME280;41275;51.912;4.388;2023-09-18T10:05:47;100351.94;;;28.96;45.21
21547;BME280;41275;51.912;4.388;2023-09-18T10:11:10;100352.19;;;28.87;44.81
21547;BME280;41275;51.912;4.388;2023-09-18T10:16:40;100353.63;;;28.81;44.45
21547;BME280;41275;51.912;4.388;2023-09-18T10:27:35;100340.28;;;28.76;44.69
21547;BME280;41275;51.912;4.388;2023-09-18T10:32:59;100350.22;;;28.88;44.22
21547;BME280;41275;51.912;4.388;2023-09-18T10:38:23;100344.13;;;28.95;43.86
21547;BME280;41275;51.912;4.388;2023-09-18T10:43:46;100340.88;;;28.85;43.07
21547;BME280;41275;51.912;4.388;2023-09-18T10:49:08;100339.19;;;28.58;43.39
21547;BME280;41275;51.912;4.388;2023-09-18T10:54:30;100355.66;;;28.65;43.43
21547;BME280;41275;51.912;4.388;2023-09-18T10:59:54;100351.94;;;28.96;43.18
21547;BME280;41275;51.912;4.388;2023-09-18T11:05:28;100348.34;;;29.11;42.68
21547;BME280;41275;51.912;4.388;2023-09-18T11:10:57;100342.56;;;28.94;42.88
21547;BME280;41275;51.912;4.388;2023-09-18T11:16:34;100341.91;;;29.23;42.38
21547;BME280;41275;51.912;4.388;2023-09-18T11:22:07;100342.69;;;29.47;41.65
21547;BME280;41275;51.912;4.388;2023-09-18T11:27:52;100344.50;;;29.39;41.55
21547;BME280;41275;51.912;4.388;2023-09-18T11:33:29;100321.31;;;29.49;41.52
21547;BME280;41275;51.912;4.388;2023-09-18T11:49:40;100318.19;;;30.33;39.97
21547;BME280;41275;51.912;4.388;2023-09-18T11:55:08;100312.16;;;30.17;39.93
21547;BME280;41275;51.912;4.388;2023-09-18T12:00:29;100307.59;;;29.98;40.18
21547;BME280;41275;51.912;4.388;2023-09-18T12:05:57;100299.81;;;29.70;40.49
21547;BME280;41275;51.912;4.388;2023-09-18T12:11:20;100301.19;;;29.83;40.62
21547;BME280;41275;51.912;4.388;2023-09-18T12:16:43;100293.25;;;30.05;41.14
21547;BME280;41275;51.912;4.388;2023-09-18T12:22:04;100291.66;;;31.12;40.00
21547;BME280;41275;51.912;4.388;2023-09-18T12:27:26;100286.63;;;31.14;39.58
21547;BME280;41275;51.912;4.388;2023-09-18T12:32:52;100272.78;;;31.48;38.85
21547;BME280;41275;51.912;4.388;2023-09-18T12:38:15;100291.66;;;32.62;37.49
21547;BME280;41275;51.912;4.388;2023-09-18T12:43:40;100286.63;;;32.96;36.30
21547;BME280;41275;51.912;4.388;2023-09-18T12:49:16;100262.72;;;33.29;35.08
21547;BME280;41275;51.912;4.388;2023-09-18T12:54:38;100250.22;;;33.03;35.26
21547;BME280;41275;51.912;4.388;2023-09-18T12:59:59;100252.94;;;33.45;35.03
21547;BME280;41275;51.912;4.388;2023-09-18T13:05:24;100231.00;;;33.28;34.65
21547;BME280;41275;51.912;4.388;2023-09-18T13:10:53;100217.72;;;34.17;33.22
21547;BME280;41275;51.912;4.388;2023-09-18T13:16:14;100221.03;;;35.06;33.15
21547;BME280;41275;51.912;4.388;2023-09-18T13:21:35;100204.84;;;35.80;31.54
21547;BME280;41275;51.912;4.388;2023-09-18T13:26:57;100192.47;;;33.74;32.96
21547;BME280;41275;51.912;4.388;2023-09-18T13:32:20;100188.34;;;32.69;34.16
21547;BME280;41275;51.912;4.388;2023-09-18T13:37:42;100176.09;;;31.85;35.36
21547;BME280;41275;51.912;4.388;2023-09-18T13:43:10;100172.16;;;31.02;36.41
21547;BME280;41275;51.912;4.388;2023-09-18T13:48:32;100171.28;;;30.43;37.63
21547;BME280;41275;51.912;4.388;2023-09-18T13:53:54;100179.69;;;29.90;38.65
21547;BME280;41275;51.912;4.388;2023-09-18T13:59:17;100179.91;;;29.47;39.83
21547;BME280;41275;51.912;4.388;2023-09-18T14:04:38;100188.09;;;28.94;39.90
21547;BME280;41275;51.912;4.388;2023-09-18T14:10:00;100229.97;;;28.21;41.63
21547;BME280;41275;51.912;4.388;2023-09-18T14:15:24;100239.66;;;25.81;46.06
21547;BME280;41275;51.912;4.388;2023-09-18T14:20:46;100238.63;;;24.87;50.46
21547;BME280;41275;51.912;4.388;2023-09-18T14:26:07;100234.31;;;24.49;52.51
21547;BME280;41275;51.912;4.388;2023-09-18T14:31:29;100224.41;;;24.33;54.33
21547;BME280;41275;51.912;4.388;2023-09-18T14:36:50;100220.34;;;24.27;55.20
21547;BME280;41275;51.912;4.388;2023-09-18T14:42:11;100220.69;;;24.25;56.09
21547;BME280;41275;51.912;4.388;2023-09-18T14:47:32;100207.59;;;23.94;56.30
21547;BME280;41275;51.912;4.388;2023-09-18T14:52:54;100208.22;;;24.12;56.89
21547;BME280;41275;51.912;4.388;2023-09-18T14:58:15;100204.31;;;26.77;55.64
21547;BME280;41275;51.912;4.388;2023-09-18T15:03:39;100200.69;;;28.79;52.84
21547;BME280;41275;51.912;4.388;2023-09-18T15:09:01;100193.16;;;27.49;52.63
21547;BME280;41275;51.912;4.388;2023-09-18T15:14:24;100170.41;;;26.87;52.38
21547;BME280;41275;51.912;4.388;2023-09-18T15:19:45;100171.19;;;26.56;52.38
21547;BME280;41275;51.912;4.388;2023-09-18T15:25:09;100156.06;;;26.55;52.21
21547;BME280;41275;51.912;4.388;2023-09-18T15:30:31;100134.25;;;26.67;52.19
21547;BME280;41275;51.912;4.388;2023-09-18T15:35:53;100146.41;;;26.89;51.59
21547;BME280;41275;51.912;4.388;2023-09-18T15:41:14;100120.50;;;26.60;50.87
21547;BME280;41275;51.912;4.388;2023-09-18T15:46:36;100127.59;;;26.80;50.24
21547;BME280;41275;51.912;4.388;2023-09-18T15:51:57;100124.44;;;26.78;49.87
21547;BME280;41275;51.912;4.388;2023-09-18T15:57:18;100096.34;;;26.71;49.54
21547;BME280;41275;51.912;4.388;2023-09-18T16:02:40;100116.38;;;26.82;49.08
21547;BME280;41275;51.912;4.388;2023-09-18T16:08:02;100128.72;;;26.63;47.76
21547;BME280;41275;51.912;4.388;2023-09-18T16:13:25;100139.34;;;26.09;48.85
21547;BME280;41275;51.912;4.388;2023-09-18T16:18:46;100155.13;;;26.19;48.65
21547;BME280;41275;51.912;4.388;2023-09-18T16:24:08;100160.44;;;26.15;48.40
21547;BME280;41275;51.912;4.388;2023-09-18T16:29:31;100159.34;;;25.88;48.52
21547;BME280;41275;51.912;4.388;2023-09-18T16:34:53;100170.06;;;26.13;48.25
21547;BME280;41275;51.912;4.388;2023-09-18T16:40:15;100163.00;;;26.24;47.21
21547;BME280;41275;51.912;4.388;2023-09-18T16:45:36;100183.91;;;26.24;46.74
21547;BME280;41275;51.912;4.388;2023-09-18T16:50:58;100197.66;;;26.31;46.81
21547;BME280;41275;51.912;4.388;2023-09-18T16:56:20;100201.06;;;26.28;46.90
21547;BME280;41275;51.912;4.388;2023-09-18T17:01:42;100206.38;;;26.24;46.82
21547;BME280;41275;51.912;4.388;2023-09-18T17:07:03;100212.56;;;26.09;47.00
21547;BME280;41275;51.912;4.388;2023-09-18T17:12:24;100223.19;;;26.14;47.35
21547;BME280;41275;51.912;4.388;2023-09-18T17:17:46;100215.31;;;26.25;46.77
21547;BME280;41275;51.912;4.388;2023-09-18T17:23:07;100222.44;;;26.29;46.66
21547;BME280;41275;51.912;4.388;2023-09-18T17:28:28;100229.06;;;26.32;46.33
21547;BME280;41275;51.912;4.388;2023-09-18T17:33:49;100237.09;;;26.28;46.21
21547;BME280;41275;51.912;4.388;2023-09-18T17:39:11;100236.47;;;26.19;46.25
21547;BME280;41275;51.912;4.388;2023-09-18T17:44:32;100243.94;;;26.22;46.17
21547;BME280;41275;51.912;4.388;2023-09-18T17:49:56;100240.75;;;26.20;46.34
21547;BME280;41275;51.912;4.388;2023-09-18T17:55:17;100224.38;;;26.16;46.51
21547;BME280;41275;51.912;4.388;2023-09-18T18:00:38;100275.19;;;26.04;46.38
21547;BME280;41275;51.912;4.388;2023-09-18T18:06:07;100258.28;;;25.94;46.44
21547;BME280;41275;51.912;4.388;2023-09-18T18:11:29;100261.91;;;25.86;46.90
21547;BME280;41275;51.912;4.388;2023-09-18T18:16:50;100287.09;;;25.87;46.95
21547;BME280;41275;51.912;4.388;2023-09-18T18:22:12;100265.63;;;25.82;47.17
21547;BME280;41275;51.912;4.388;2023-09-18T18:27:33;100285.97;;;25.27;47.43
21547;BME280;41275;51.912;4.388;2023-09-18T18:32:55;100309.41;;;24.65;49.21
21547;BME280;41275;51.912;4.388;2023-09-18T18:38:16;100322.03;;;24.61;49.94
21547;BME280;41275;51.912;4.388;2023-09-18T18:43:39;100312.03;;;24.73;50.12
21547;BME280;41275;51.912;4.388;2023-09-18T18:49:00;100310.25;;;24.90;49.81
21547;BME280;41275;51.912;4.388;2023-09-18T18:54:22;100311.50;;;24.92;49.73
21547;BME280;41275;51.912;4.388;2023-09-18T18:59:43;100326.16;;;24.91;50.01
21547;BME280;41275;51.912;4.388;2023-09-18T19:05:05;100331.63;;;25.04;49.74
21547;BME280;41275;51.912;4.388;2023-09-18T19:10:30;100340.47;;;25.13;49.56
21547;BME280;41275;51.912;4.388;2023-09-18T19:15:51;100362.00;;;25.21;49.70
21547;BME280;41275;51.912;4.388;2023-09-18T19:21:13;100356.19;;;25.32;49.83
21547;BME280;41275;51.912;4.388;2023-09-18T19:26:34;100358.88;;;25.44;49.43
21547;BME280;41275;51.912;4.388;2023-09-18T19:31:55;100369.97;;;25.39;49.12
21547;BME280;41275;51.912;4.388;2023-09-18T19:37:16;100359.44;;;25.37;48.36
21547;BME280;41275;51.912;4.388;2023-09-18T19:42:37;100391.38;;;25.32;47.14
21547;BME280;41275;51.912;4.388;2023-09-18T19:47:59;100403.56;;;25.38;46.05
21547;BME280;41275;51.912;4.388;2023-09-18T19:53:20;100413.28;;;25.39;45.54
21547;BME280;41275;51.912;4.388;2023-09-18T19:58:42;100415.19;;;25.38;45.32
21547;BME280;41275;51.912;4.388;2023-09-18T20:04:04;100429.31;;;25.32;45.00
21547;BME280;41275;51.912;4.388;2023-09-18T20:09:25;100437.38;;;24.36;45.41
21547;BME280;41275;51.912;4.388;2023-09-18T20:14:48;100436.78;;;24.00;46.98
21547;BME280;41275;51.912;4.388;2023-09-18T20:20:10;100439.31;;;24.06;46.85
21547;BME280;41275;51.912;4.388;2023-09-18T20:25:31;100435.44;;;24.15;46.56
21547;BME280;41275;51.912;4.388;2023-09-18T20:30:53;100434.72;;;24.27;46.67
21547;BME280;41275;51.912;4.388;2023-09-18T20:36:14;100442.00;;;24.35;46.74
21547;BME280;41275;51.912;4.388;2023-09-18T20:41:36;100450.06;;;24.44;46.59
21547;BME280;41275;51.912;4.388;2023-09-18T20:46:58;100450.63;;;24.58;46.27
21547;BME280;41275;51.912;4.388;2023-09-18T20:52:19;100462.22;;;24.59;45.85
21547;BME280;41275;51.912;4.388;2023-09-18T20:57:41;100489.94;;;24.56;45.53
21547;BME280;41275;51.912;4.388;2023-09-18T21:03:03;100505.72;;;24.15;46.05
21547;BME280;41275;51.912;4.388;2023-09-18T21:08:24;100485.56;;;22.79;47.58
21547;BME280;41275;51.912;4.388;2023-09-18T21:13:46;100511.94;;;21.85;49.89
21547;BME280;41275;51.912;4.388;2023-09-18T21:19:07;100558.53;;;21.63;50.81
21547;BME280;41275;51.912;4.388;2023-09-18T21:24:28;100554.34;;;21.57;50.77
21547;BME280;41275;51.912;4.388;2023-09-18T21:29:49;100553.69;;;21.51;50.33
21547;BME280;41275;51.912;4.388;2023-09-18T21:35:11;100566.63;;;21.63;50.54
21547;BME280;41275;51.912;4.388;2023-09-18T21:40:33;100565.69;;;21.68;49.71
21547;BME280;41275;51.912;4.388;2023-09-18T21:45:55;100569.50;;;21.67;49.48
21547;BME280;41275;51.912;4.388;2023-09-18T21:51:16;100576.59;;;21.63;49.74
21547;BME280;41275;51.912;4.388;2023-09-18T21:56:38;100582.78;;;21.63;49.71
21547;BME280;41275;51.912;4.388;2023-09-18T22:01:59;100590.66;;;21.60;50.00
21547;BME280;41275;51.912;4.388;2023-09-18T22:07:20;100596.25;;;21.63;49.91
21547;BME280;41275;51.912;4.388;2023-09-18T22:12:41;100610.69;;;21.67;49.78
21547;BME280;41275;51.912;4.388;2023-09-18T22:18:04;100599.16;;;21.75;48.94
21547;BME280;41275;51.912;4.388;2023-09-18T22:23:26;100605.34;;;21.98;48.45
21547;BME280;41275;51.912;4.388;2023-09-18T22:28:48;100619.63;;;22.21;47.81
21547;BME280;41275;51.912;4.388;2023-09-18T22:34:10;100615.66;;;22.27;46.84
21547;BME280;41275;51.912;4.388;2023-09-18T22:56:51;100627.19;;;22.50;44.60
21547;BME280;41275;51.912;4.388;2023-09-18T23:02:12;100645.47;;;22.53;43.56
21547;BME280;41275;51.912;4.388;2023-09-18T23:07:33;100636.28;;;22.63;42.55
21547;BME280;41275;51.912;4.388;2023-09-18T23:12:59;100645.81;;;22.61;41.67
21547;BME280;41275;51.912;4.388;2023-09-18T23:18:25;100659.91;;;22.58;41.93
21547;BME280;41275;51.912;4.388;2023-09-18T23:23:46;100662.94;;;22.56;41.53
21547;BME280;41275;51.912;4.388;2023-09-18T23:29:08;100672.63;;;22.66;40.95
21547;BME280;41275;51.912;4.388;2023-09-18T23:34:29;100670.13;;;22.69;40.97
21547;BME280;41275;51.912;4.388;2023-09-18T23:39:52;100680.75;;;22.74;41.08
21547;BME280;41275;51.912;4.388;2023-09-18T23:45:15;100689.88;;;22.87;41.06
21547;BME280;41275;51.912;4.388;2023-09-18T23:50:37;100701.81;;;22.95;40.57
21547;BME280;41275;51.912;4.388;2023-09-18T23:56:02;100711.22;;;23.06;39.70
